Time;durP1;ratioP1;P1;durP2;ratioP2;P2;SDS_P1;SDS_P2;PMS_P1;PMS_P2;Temp;Humidity;BMP_temperature;BMP_pressure;BME280_temperature;BME280_humidity;BME280_pressure;Samples;Min_cycle;Max_cycle;Signal;HPM_P1;HPM_P2
2022/12/21 00:01:50;;;;;;;78.27;27.57;;;;;;;9.43;100.00;149833.66;4994112;28;20022;-64
2022/12/21 00:04:16;;;;;;;99.57;33.63;;;;;;;9.40;100.00;149828.47;4992244;28;20022;-64
2022/12/21 00:06:41;;;;;;;82.23;30.27;;;;;;;9.39;100.00;149824.59;4995274;28;20074;-65
2022/12/21 00:09:11;;;;;;;97.97;33.27;;;;;;;9.41;100.00;149829.78;4993681;28;20042;-63
2022/12/21 00:11:36;;;;;;;85.50;29.53;;;;;;;9.36;100.00;149818.16;4975604;28;20023;-62
2022/12/21 00:14:03;;;;;;;89.33;30.70;;;;;;;9.38;100.00;149822.03;4975462;28;20042;-63
2022/12/21 00:16:31;;;;;;;94.63;31.40;;;;;;;9.37;100.00;149819.44;4984800;28;20030;-64
2022/12/21 00:19:17;;;;;;;96.07;32.77;;;;;;;9.35;100.00;149815.56;4980887;28;20037;-63
2022/12/21 00:21:42;;;;;;;102.33;34.67;;;;;;;9.36;100.00;149818.16;4974669;28;20058;-64
2022/12/21 00:24:08;;;;;;;106.30;34.17;;;;;;;9.34;100.00;149811.69;4979709;28;20030;-64
2022/12/21 00:26:36;;;;;;;107.07;33.97;;;;;;;9.38;100.00;149823.31;4981507;28;20076;-64
2022/12/21 00:29:03;;;;;;;119.23;34.53;;;;;;;9.36;100.00;149818.16;4984412;28;20070;-64
2022/12/21 00:31:34;;;;;;;95.77;30.73;;;;;;;9.27;100.00;149793.56;4994567;28;20053;-64
2022/12/21 00:34:02;;;;;;;108.95;33.45;;;;;;;9.30;100.00;149802.59;4987147;28;20045;-63
2022/12/21 00:36:29;;;;;;;116.53;33.80;;;;;;;9.33;100.00;149809.09;4994227;28;20044;-64
2022/12/21 00:38:55;;;;;;;112.93;32.87;;;;;;;9.28;100.00;149797.44;4994000;28;20520;-64
2022/12/21 00:41:22;;;;;;;118.70;32.93;;;;;;;9.20;100.00;149776.72;4983973;28;20077;-63
2022/12/21 00:43:50;;;;;;;134.37;34.20;;;;;;;9.16;100.00;149766.38;4980544;28;20113;-64
2022/12/21 00:46:21;;;;;;;123.40;33.63;;;;;;;9.14;100.00;149761.22;4976720;28;20069;-64
2022/12/21 00:48:47;;;;;;;117.93;33.38;;;;;;;9.12;100.00;149756.06;4986367;28;20117;-63
2022/12/21 00:51:18;;;;;;;116.03;31.93;;;;;;;9.15;100.00;149763.78;4976139;28;20545;-63
2022/12/21 00:53:44;;;;;;;119.78;35.22;;;;;;;9.19;100.00;149774.13;4993352;28;20034;-63
2022/12/21 00:56:10;;;;;;;108.53;31.30;;;;;;;9.20;100.00;149776.72;4993057;28;20056;-64
2022/12/21 00:58:37;;;;;;;119.43;33.33;;;;;;;9.22;100.00;149781.94;4991998;28;20034;-64
2022/12/21 01:01:08;;;;;;;129.57;36.30;;;;;;;9.24;100.00;149787.09;4986222;28;20365;-64
2022/12/21 01:03:46;;;;;;;139.57;35.75;;;;;;;9.26;100.00;149790.97;4978452;28;20045;-63
2022/12/21 01:06:47;;;;;;;128.67;34.40;;;;;;;9.21;100.00;149778.06;4985148;28;20540;-63
2022/12/21 01:09:12;;;;;;;137.70;35.63;;;;;;;9.22;100.00;149781.94;4988235;28;20037;-64
2022/12/21 01:11:47;;;;;;;132.37;33.63;;;;;;;9.23;100.00;149783.22;4991708;28;20474;-63
2022/12/21 01:14:35;;;;;;;155.43;35.13;;;;;;;9.24;100.00;149787.09;4984489;28;20029;-63
2022/12/21 01:17:29;;;;;;;149.13;34.33;;;;;;;9.20;100.00;149776.72;4990068;28;20023;-63
2022/12/21 01:19:55;;;;;;;153.90;33.60;;;;;;;9.18;100.00;149771.53;4986650;28;20046;-64
2022/12/21 01:22:20;;;;;;;143.73;34.50;;;;;;;9.18;100.00;149771.53;4993644;28;20041;-64
2022/12/21 01:24:46;;;;;;;139.80;32.93;;;;;;;9.16;100.00;149766.38;4980247;28;20521;-63
2022/12/21 01:27:12;;;;;;;129.33;32.27;;;;;;;9.15;100.00;149763.78;4974542;28;20035;-63
2022/12/21 01:29:37;;;;;;;198.27;34.67;;;;;;;9.12;100.00;149756.06;4983683;28;20745;-63
2022/12/21 01:32:03;;;;;;;182.23;34.67;;;;;;;9.14;100.00;149761.22;4993483;28;20513;-63
2022/12/21 01:34:29;;;;;;;169.03;34.30;;;;;;;9.09;100.00;149748.31;4985312;28;20034;-64
2022/12/21 01:36:54;;;;;;;184.43;34.13;;;;;;;9.06;100.00;149740.50;4991098;28;20109;-64
2022/12/21 01:39:28;;;;;;;146.60;31.87;;;;;;;9.06;100.00;149740.50;4979839;28;20120;-63
2022/12/21 01:41:54;;;;;;;152.87;32.93;;;;;;;9.06;100.00;149740.50;4993015;28;20033;-64
2022/12/21 01:44:47;;;;;;;121.73;30.00;;;;;;;9.10;100.00;149752.16;4992883;28;20026;-64
2022/12/21 01:47:17;;;;;;;115.57;29.00;;;;;;;9.11;100.00;149753.47;4991638;28;20034;-63
2022/12/21 01:49:56;;;;;;;124.27;29.47;;;;;;;9.09;100.00;149748.31;4988580;28;20026;-64
2022/12/21 01:52:22;;;;;;;118.90;30.03;;;;;;;9.07;100.00;149743.09;4987792;28;20042;-64
2022/12/21 01:54:55;;;;;;;108.93;28.57;;;;;;;9.09;100.00;149748.31;4991003;28;20040;-64
2022/12/21 01:57:32;;;;;;;119.73;29.13;;;;;;;9.03;100.00;149734.03;4992690;28;20520;-63
2022/12/21 02:00:00;;;;;;;145.20;30.77;;;;;;;9.05;100.00;149737.91;4982907;28;20457;-64
2022/12/21 02:02:33;;;;;;;115.67;29.13;;;;;;;9.01;100.00;149727.59;4989328;28;20047;-64
2022/12/21 02:05:11;;;;;;;126.67;28.43;;;;;;;9.03;100.00;149732.75;4988741;28;20049;-63
2022/12/21 02:07:39;;;;;;;127.80;29.77;;;;;;;9.04;100.00;149735.34;4987872;28;20044;-64
2022/12/21 02:10:05;;;;;;;189.37;31.50;;;;;;;9.00;100.00;149725.00;4981364;28;20022;-64
2022/12/21 02:12:31;;;;;;;142.80;29.63;;;;;;;9.01;100.00;149728.88;4976719;28;20031;-64
2022/12/21 02:14:56;;;;;;;115.80;27.23;;;;;;;9.03;100.00;149732.75;4991447;28;20030;-63
2022/12/21 02:17:43;;;;;;;139.27;29.73;;;;;;;9.02;100.00;149730.16;4975522;28;20022;-64
2022/12/21 02:20:44;;;;;;;123.03;28.43;;;;;;;9.04;100.00;149735.34;4991642;28;20038;-64
2022/12/21 02:23:40;;;;;;;138.23;28.87;;;;;;;9.06;100.00;149741.78;4991470;28;20441;-64
2022/12/21 02:26:26;;;;;;;157.10;30.67;;;;;;;8.97;100.00;149718.56;4981292;28;20494;-63
2022/12/21 02:29:08;;;;;;;176.07;31.90;;;;;;;8.98;100.00;149719.84;4973396;28;20486;-65
2022/12/21 02:32:10;;;;;;;357.33;34.97;;;;;;;8.94;100.00;149709.47;4975497;28;20117;-65
2022/12/21 02:34:45;;;;;;;;;;;;;;;8.81;100.00;149678.41;4991710;28;20101;-64
2022/12/21 02:37:25;;;;;;;284.20;33.40;;;;;;;8.80;100.00;149675.84;4991282;28;19913;-65
2022/12/21 02:40:14;;;;;;;171.33;30.13;;;;;;;8.82;100.00;149679.72;5003966;28;20153;-64
2022/12/21 02:46:19;;;;;;;171.40;29.33;;;;;;;8.87;100.00;149691.38;4973305;28;20093;-64
2022/12/21 02:48:52;;;;;;;202.87;31.10;;;;;;;8.76;100.00;149665.50;4974762;28;20034;-65
2022/12/21 02:51:23;;;;;;;314.93;34.27;;;;;;;8.87;100.00;149692.66;4990677;28;20034;-65
2022/12/21 02:53:53;;;;;;;222.40;31.33;;;;;;;8.82;100.00;149681.00;4996419;28;20482;-64
2022/12/21 02:56:19;;;;;;;162.40;30.40;;;;;;;8.84;100.00;149684.88;4995127;28;20034;-65
2022/12/21 02:58:45;;;;;;;162.50;29.73;;;;;;;8.84;100.00;149683.59;4993942;28;20037;-65
2022/12/21 03:01:28;;;;;;;160.83;29.30;;;;;;;8.81;100.00;149678.41;4991804;28;20034;-65
2022/12/21 03:04:32;;;;;;;149.83;29.30;;;;;;;8.78;100.00;149670.66;4994620;28;20518;-65
2022/12/21 03:07:15;;;;;;;320.57;32.43;;;;;;;8.73;100.00;149656.47;4970034;28;20038;-65
2022/12/21 03:13:33;;;;;;;158.85;28.83;;;;;;;8.65;100.00;149637.06;4977771;28;20080;-65
2022/12/21 03:16:10;;;;;;;150.47;29.40;;;;;;;8.67;100.00;149642.22;4976569;28;20037;-65
2022/12/21 03:19:16;;;;;;;154.57;29.93;;;;;;;8.72;100.00;149653.84;4996237;28;20387;-65
2022/12/21 03:22:11;;;;;;;177.43;30.03;;;;;;;8.71;100.00;149652.53;4994450;28;20018;-64
2022/12/21 03:24:39;;;;;;;155.13;28.70;;;;;;;8.78;100.00;149670.66;4998545;28;20029;-65
2022/12/21 03:27:17;;;;;;;176.90;30.53;;;;;;;8.69;100.00;149647.38;4988740;28;20062;-65
2022/12/21 03:29:55;;;;;;;168.43;29.97;;;;;;;8.67;100.00;149642.22;4975995;28;20422;-65
2022/12/21 03:32:37;;;;;;;170.30;29.67;;;;;;;8.62;100.00;149629.31;4983461;28;20034;-65
2022/12/21 03:35:09;;;;;;;163.20;29.30;;;;;;;8.59;100.00;149621.50;4979804;28;20479;-65
2022/12/21 03:37:36;;;;;;;;;;;;;;;8.57;100.00;149616.34;4986150;28;20097;-65
2022/12/21 03:40:44;;;;;;;175.13;29.20;;;;;;;8.56;100.00;149613.75;4981312;28;19925;-64
2022/12/21 03:43:25;;;;;;;161.97;28.13;;;;;;;8.49;100.00;149595.69;4975893;28;20031;-64
2022/12/21 03:45:55;;;;;;;165.37;30.07;;;;;;;8.41;100.00;149575.00;4976119;28;20109;-64
2022/12/21 03:48:39;;;;;;;178.43;30.87;;;;;;;8.34;100.00;149556.81;4982776;28;20042;-64
2022/12/21 03:51:19;;;;;;;179.77;29.47;;;;;;;8.28;100.00;149541.34;4982453;28;20490;-63
2022/12/21 03:53:59;;;;;;;250.13;30.47;;;;;;;8.09;100.00;149493.50;4987780;28;20019;-64
2022/12/21 03:56:47;;;;;;;272.50;31.70;;;;;;;8.00;100.00;149470.25;4988864;28;20030;-63
2022/12/21 03:59:14;;;;;;;614.87;38.57;;;;;;;7.96;100.00;149459.88;4994821;28;20494;-63
2022/12/21 04:01:48;;;;;;;282.20;32.23;;;;;;;7.88;100.00;149440.53;4993748;28;20034;-63
2022/12/21 04:04:22;;;;;;;390.40;35.13;;;;;;;7.93;100.00;149454.72;4989327;28;20514;-63
2022/12/21 04:06:50;;;;;;;354.23;33.50;;;;;;;7.92;100.00;149450.84;4990265;28;20034;-64
2022/12/21 04:09:16;;;;;;;668.87;41.20;;;;;;;7.91;100.00;149448.28;4990125;28;20067;-63
2022/12/21 04:14:29;;;;;;;879.60;38.67;;;;;;;7.83;100.00;149427.59;4982084;28;20070;-64
2022/12/21 04:16:55;;;;;;;608.03;37.50;;;;;;;7.74;100.00;149404.31;4989246;28;20057;-63
2022/12/21 04:22:08;;;;;;;290.90;29.83;;;;;;;7.56;100.00;149360.41;4992536;28;20095;-63
2022/12/21 04:30:01;;;;;;;345.07;30.23;;;;;;;7.52;100.00;149348.81;4984428;28;20061;-63
2022/12/21 04:32:58;;;;;;;332.60;30.80;;;;;;;7.59;100.00;149366.84;4994549;28;20454;-63
2022/12/21 04:35:24;;;;;;;253.93;31.90;;;;;;;7.79;100.00;149418.56;4934045;29;20065;-63
2022/12/21 04:38:18;;;;;;;294.90;31.07;;;;;;;7.87;100.00;149437.91;4934143;29;20067;-63
2022/12/21 04:40:51;;;;;;;287.43;27.30;;;;;;;7.84;100.00;149430.16;4935849;28;20060;-63
2022/12/21 04:43:26;;;;;;;563.63;30.20;;;;;;;7.70;100.00;149395.28;4981964;28;20025;-63
2022/12/21 04:46:09;;;;;;;737.67;32.57;;;;;;;7.48;100.00;149339.72;4989879;28;20704;-63
2022/12/21 04:48:35;;;;;;;589.77;30.03;;;;;;;7.35;100.00;149307.44;4980126;28;20544;-64
2022/12/21 04:51:19;;;;;;;959.07;41.73;;;;;;;7.28;100.00;149288.09;4991217;28;20493;-64
2022/12/21 04:53:45;;;;;;;503.03;31.87;;;;;;;7.38;100.00;149312.59;4994009;28;20096;-64
2022/12/21 04:56:11;;;;;;;402.37;32.10;;;;;;;7.46;100.00;149334.56;4993374;28;20031;-64
2022/12/21 04:58:45;;;;;;;622.67;34.07;;;;;;;7.49;100.00;149341.00;4981907;28;20035;-63
2022/12/21 05:01:14;;;;;;;273.13;32.97;;;;;;;7.54;100.00;149355.25;4991795;28;20382;-63
2022/12/21 05:03:39;;;;;;;332.87;34.83;;;;;;;7.56;100.00;149360.41;4993598;28;20018;-63
2022/12/21 05:06:06;;;;;;;476.87;34.47;;;;;;;7.53;100.00;149352.66;4983049;28;20489;-63
2022/12/21 05:08:32;;;;;;;487.87;36.83;;;;;;;7.53;100.00;149352.66;4989907;28;20026;-64
2022/12/21 05:11:09;;;;;;;397.37;33.20;;;;;;;7.56;100.00;149359.13;4991924;28;20394;-63
2022/12/21 05:13:35;;;;;;;402.87;34.67;;;;;;;7.49;100.00;149341.00;4987227;28;20112;-63
2022/12/21 05:16:05;;;;;;;572.77;34.77;;;;;;;7.39;100.00;149316.50;4987375;28;20117;-64
2022/12/21 05:18:31;;;;;;;801.40;42.23;;;;;;;7.31;100.00;149297.13;4993348;28;20362;-63
2022/12/21 05:20:56;;;;;;;428.83;33.70;;;;;;;7.36;100.00;149308.72;4989736;28;20513;-63
2022/12/21 05:23:22;;;;;;;680.93;41.87;;;;;;;7.34;100.00;149303.56;4990513;28;20109;-63
2022/12/21 05:25:47;;;;;;;378.27;32.73;;;;;;;7.22;100.00;149272.56;4995777;28;20099;-64
2022/12/21 05:28:12;;;;;;;392.03;31.77;;;;;;;7.23;100.00;149275.16;4987868;28;20053;-63
2022/12/21 05:31:50;;;;;;;423.10;35.07;;;;;;;7.31;100.00;149295.84;4974276;28;20030;-63
2022/12/21 05:34:15;;;;;;;710.93;39.10;;;;;;;7.13;100.00;149249.31;4932446;29;20625;-63
2022/12/21 05:36:40;;;;;;;506.23;21.73;;;;;;;6.93;100.00;149198.97;4942707;28;20039;-63
2022/12/21 05:39:06;;;;;;;676.27;29.83;;;;;;;6.74;100.00;149151.19;4988544;28;20113;-63
2022/12/21 05:41:31;;;;;;;897.47;33.53;;;;;;;6.62;100.00;149120.22;4992594;28;20030;-63
2022/12/21 05:43:56;;;;;;;900.77;38.47;;;;;;;6.74;100.00;149151.19;4980955;28;20019;-62
2022/12/21 05:46:22;;;;;;;868.97;41.50;;;;;;;6.69;100.00;149138.31;4973555;28;20382;-62
2022/12/21 05:48:47;;;;;;;849.57;37.17;;;;;;;6.63;100.00;149122.78;4989974;28;20121;-62
2022/12/21 05:51:13;;;;;;;912.90;39.67;;;;;;;6.57;100.00;149108.63;4987581;28;20033;-62
2022/12/21 05:53:41;;;;;;;878.07;39.93;;;;;;;6.51;100.00;149091.81;4992625;28;20038;-63
2022/12/21 05:56:07;;;;;;;974.23;37.87;;;;;;;6.58;100.00;149109.91;4989917;28;20030;-63
2022/12/21 05:58:33;;;;;;;744.77;33.77;;;;;;;6.78;100.00;149161.50;4997830;28;20042;-63
2022/12/21 06:01:03;;;;;;;591.47;29.80;;;;;;;6.84;100.00;149177.03;4991502;28;20133;-62
2022/12/21 06:03:29;;;;;;;748.23;37.27;;;;;;;6.94;100.00;149201.56;4973441;28;20022;-62
2022/12/21 06:06:10;;;;;;;948.77;42.60;;;;;;;6.91;100.00;149193.81;4984155;28;20037;-62
2022/12/21 06:08:35;;;;;;;605.13;33.13;;;;;;;6.95;100.00;149205.44;4982793;28;20093;-63
2022/12/21 06:11:23;;;;;;;625.80;30.93;;;;;;;6.92;100.00;149196.41;4973435;28;20418;-62
2022/12/21 06:13:55;;;;;;;682.17;35.07;;;;;;;6.96;100.00;149206.72;4986352;28;20027;-63
2022/12/21 06:16:22;;;;;;;757.13;38.92;;;;;;;6.98;100.00;149211.88;4989752;28;20023;-62
2022/12/21 06:18:49;;;;;;;545.50;29.27;;;;;;;7.17;100.00;149259.69;4981601;28;20084;-62
2022/12/21 06:21:15;;;;;;;754.00;36.13;;;;;;;7.09;100.00;149239.00;4978270;28;20046;-63
2022/12/21 06:23:42;;;;;;;714.73;30.27;;;;;;;6.76;100.00;149156.34;4973300;28;20403;-62
2022/12/21 06:26:11;;;;;;;764.43;34.17;;;;;;;6.71;100.00;149143.47;4973412;28;20034;-62
2022/12/21 06:28:36;;;;;;;734.23;35.07;;;;;;;6.85;100.00;149179.59;4987677;28;20058;-62
2022/12/21 06:31:07;;;;;;;752.00;36.33;;;;;;;6.89;100.00;149188.63;4991926;28;20513;-62
2022/12/21 06:33:33;;;;;;;703.15;31.25;;;;;;;6.81;100.00;149168.00;4992596;28;20034;-62
2022/12/21 06:35:59;;;;;;;756.17;36.60;;;;;;;6.79;100.00;149164.13;4991975;28;20037;-62
2022/12/21 06:38:42;;;;;;;813.47;37.07;;;;;;;6.78;100.00;149161.50;4986553;28;20039;-61
2022/12/21 06:41:10;;;;;;;728.03;34.70;;;;;;;6.79;100.00;149164.13;4978133;28;20023;-62
2022/12/21 06:43:38;;;;;;;696.70;37.27;;;;;;;6.82;100.00;149171.88;4991221;28;20026;-61
2022/12/21 06:46:09;;;;;;;603.43;34.23;;;;;;;6.85;100.00;149178.31;4991720;28;20076;-62
2022/12/21 06:48:35;;;;;;;756.05;38.88;;;;;;;6.97;100.00;149210.59;4991152;28;20380;-62
2022/12/21 06:51:04;;;;;;;516.93;34.77;;;;;;;7.01;100.00;149220.91;4973560;28;20501;-62
2022/12/21 06:53:33;;;;;;;330.57;31.43;;;;;;;7.15;100.00;149254.47;4977652;28;20402;-62
2022/12/21 06:55:59;;;;;;;575.43;37.90;;;;;;;7.18;100.00;149262.25;4990583;28;20108;-61
2022/12/21 06:58:25;;;;;;;534.77;34.53;;;;;;;7.14;100.00;149251.88;4984508;28;20492;-62
2022/12/21 07:00:50;;;;;;;1021.47;47.70;;;;;;;7.16;100.00;149257.09;4989326;28;20022;-62
2022/12/21 07:03:16;;;;;;;868.20;42.97;;;;;;;7.16;100.00;149257.09;4992228;28;20049;-62
2022/12/21 07:05:41;;;;;;;790.33;40.97;;;;;;;7.15;100.00;149254.47;4981358;28;20031;-61
2022/12/21 07:08:06;;;;;;;724.67;44.07;;;;;;;7.18;100.00;149262.25;4978045;28;20038;-61
2022/12/21 07:10:32;;;;;;;725.07;44.03;;;;;;;7.18;100.00;149262.25;4988643;28;20022;-61
2022/12/21 07:12:58;;;;;;;721.07;44.83;;;;;;;7.17;100.00;149259.69;4991744;28;20477;-62
2022/12/21 07:15:23;;;;;;;739.13;40.70;;;;;;;7.07;100.00;149233.84;4990265;28;20123;-62
2022/12/21 07:17:49;;;;;;;794.03;39.80;;;;;;;6.98;100.00;149213.16;4990059;28;20026;-63
2022/12/21 07:20:14;;;;;;;849.00;40.10;;;;;;;6.79;100.00;149164.13;4991683;28;20438;-62
2022/12/21 07:22:40;;;;;;;809.23;37.73;;;;;;;6.64;100.00;149125.38;4972747;28;20051;-62
2022/12/21 07:25:44;;;;;;;661.30;34.30;;;;;;;6.49;100.00;149086.66;4982251;28;20427;-62
2022/12/21 07:28:12;;;;;;;712.43;35.17;;;;;;;6.47;100.00;149082.78;4977739;28;20046;-62
2022/12/21 07:30:49;;;;;;;798.17;37.60;;;;;;;6.49;100.00;149086.66;4991433;28;20026;-62
2022/12/21 07:33:29;;;;;;;628.07;30.43;;;;;;;6.50;100.00;149089.25;4989742;28;20042;-62
2022/12/21 07:35:59;;;;;;;579.53;32.27;;;;;;;6.47;100.00;149082.78;4994011;28;20046;-61
2022/12/21 07:38:44;;;;;;;663.90;33.80;;;;;;;6.51;100.00;149093.09;4994505;28;20088;-63
2022/12/21 07:41:13;;;;;;;546.30;30.73;;;;;;;6.46;100.00;149081.50;4989538;28;20054;-63
2022/12/21 07:43:42;;;;;;;623.00;35.77;;;;;;;6.57;100.00;149107.31;4975062;28;20034;-61
2022/12/21 07:46:11;;;;;;;856.03;42.80;;;;;;;6.63;100.00;149122.78;4982395;28;20038;-63
2022/12/21 07:48:37;;;;;;;854.90;41.40;;;;;;;6.67;100.00;149133.16;4990624;28;20072;-63
2022/12/21 07:51:03;;;;;;;925.67;41.27;;;;;;;6.67;100.00;149133.16;4992473;28;20439;-63
2022/12/21 07:53:29;;;;;;;871.83;41.70;;;;;;;6.75;100.00;149155.06;4983529;28;20469;-63
2022/12/21 07:56:03;;;;;;;991.10;45.43;;;;;;;6.74;100.00;149151.19;4995553;28;20084;-62
2022/12/21 07:58:28;;;;;;;871.67;42.23;;;;;;;6.75;100.00;149153.78;4994605;28;20056;-63
2022/12/21 08:00:54;;;;;;;932.97;44.80;;;;;;;6.77;100.00;149158.94;4994744;28;20046;-62
2022/12/21 08:03:28;;;;;;;970.10;42.57;;;;;;;6.75;100.00;149155.06;4992355;28;20032;-62
2022/12/21 08:05:54;;;;;;;798.13;41.13;;;;;;;6.79;100.00;149164.13;4990665;28;20407;-62
2022/12/21 08:11:58;;;;;;;908.70;41.60;;;;;;;6.97;100.00;149210.59;4974434;28;20034;-61
2022/12/21 08:14:24;;;;;;;1007.30;47.27;;;;;;;7.08;100.00;149237.72;4990825;28;20032;-63
2022/12/21 08:16:49;;;;;;;901.70;42.93;;;;;;;7.08;100.00;149236.41;4990531;28;20455;-64
2022/12/21 08:19:14;;;;;;;960.70;42.73;;;;;;;7.08;100.00;149236.41;4990160;28;20525;-63
2022/12/21 08:21:40;;;;;;;1028.60;44.53;;;;;;;7.08;100.00;149236.41;5004787;28;20078;-63
2022/12/21 08:24:09;;;;;;;916.67;42.30;;;;;;;7.13;100.00;149249.31;4979690;28;20101;-66
2022/12/21 08:26:34;;;;;;;1002.20;44.93;;;;;;;7.18;100.00;149262.25;4985689;28;20032;-64
2022/12/21 08:29:00;;;;;;;764.70;37.27;;;;;;;7.17;100.00;149259.69;4994846;28;20117;-63
2022/12/21 08:31:26;;;;;;;536.93;35.57;;;;;;;7.21;100.00;149271.28;4993154;28;20026;-62
2022/12/21 08:33:51;;;;;;;431.27;33.13;;;;;;;7.30;100.00;149294.53;4985912;28;20496;-62
2022/12/21 08:36:20;;;;;;;319.33;31.37;;;;;;;7.45;100.00;149330.69;4987271;28;20068;-64
2022/12/21 08:38:46;;;;;;;300.43;31.47;;;;;;;7.56;100.00;149360.41;4990542;28;20027;-63
2022/12/21 08:41:11;;;;;;;373.63;33.37;;;;;;;7.60;100.00;149369.44;4992793;28;20593;-63
2022/12/21 08:43:38;;;;;;;310.17;31.10;;;;;;;7.60;100.00;149370.72;4987888;28;20022;-63
2022/12/21 08:46:10;;;;;;;417.80;34.17;;;;;;;7.64;100.00;149381.09;4988572;28;20031;-62
2022/12/21 08:48:36;;;;;;;351.97;31.40;;;;;;;7.69;100.00;149391.41;4993214;28;20022;-62
2022/12/21 08:51:03;;;;;;;215.13;29.07;;;;;;;7.71;100.00;149397.88;4985719;28;20050;-63
2022/12/21 08:53:28;;;;;;;190.97;27.63;;;;;;;7.75;100.00;149406.91;4986260;28;20030;-64
2022/12/21 08:55:57;;;;;;;175.30;27.57;;;;;;;7.80;100.00;149421.13;4987855;28;20030;-63
2022/12/21 08:58:24;;;;;;;168.37;27.23;;;;;;;7.97;100.00;149463.75;4992736;28;20034;-63
2022/12/21 09:00:54;;;;;;;163.90;27.07;;;;;;;8.08;100.00;149492.19;4983598;28;20482;-64
2022/12/21 09:03:26;;;;;;;144.23;24.90;;;;;;;8.14;100.00;149507.72;4993938;28;20434;-64
2022/12/21 09:06:02;;;;;;;130.93;24.13;;;;;;;8.22;100.00;149528.38;4992103;28;20446;-63
2022/12/21 09:08:28;;;;;;;108.63;21.53;;;;;;;8.36;100.00;149562.03;4988569;28;20085;-65
2022/12/21 09:11:06;;;;;;;94.47;19.50;;;;;;;8.32;100.00;149552.94;4990494;28;20057;-63
2022/12/21 09:13:31;;;;;;;97.37;18.67;;;;;;;8.15;100.00;149510.31;4994012;28;20027;-62
2022/12/21 09:15:57;;;;;;;108.70;19.60;;;;;;;8.15;100.00;149509.03;4996085;28;20026;-62
2022/12/21 09:18:25;;;;;;;106.57;18.37;;;;;;;8.20;100.00;149523.22;4987236;28;20019;-62
2022/12/21 09:20:51;;;;;;;82.07;16.53;;;;;;;8.30;100.00;149546.50;4989774;28;20331;-62
2022/12/21 09:23:16;;;;;;;96.97;17.30;;;;;;;8.30;100.00;149546.50;4990545;28;20033;-63
2022/12/21 09:25:42;;;;;;;77.87;17.97;;;;;;;8.22;100.00;149528.38;4989884;28;20435;-62
2022/12/21 09:28:07;;;;;;;69.33;17.17;;;;;;;8.19;100.00;149520.63;4986019;28;20117;-63
2022/12/21 09:30:33;;;;;;;91.07;20.50;;;;;;;8.19;100.00;149520.63;4977110;28;20083;-62
2022/12/21 09:32:58;;;;;;;93.17;21.33;;;;;;;8.18;100.00;149518.06;4984007;28;20114;-62
2022/12/21 09:35:24;;;;;;;92.03;21.27;;;;;;;8.12;100.00;149502.56;4987202;28;20018;-63
2022/12/21 09:37:50;;;;;;;99.97;22.03;;;;;;;8.15;100.00;149510.31;4984471;28;20034;-62
2022/12/21 09:40:18;;;;;;;103.00;21.30;;;;;;;8.09;100.00;149493.50;4988321;28;20022;-62
2022/12/21 09:43:22;;;;;;;98.80;19.80;;;;;;;8.07;100.00;149489.63;4986919;28;20026;-62
2022/12/21 09:46:04;;;;;;;77.87;18.43;;;;;;;8.07;100.00;149489.63;4983524;28;20034;-61
2022/12/21 09:48:41;;;;;;;90.03;17.67;;;;;;;8.07;100.00;149489.63;4987372;28;20129;-63
2022/12/21 09:51:17;;;;;;;79.60;16.53;;;;;;;8.12;100.00;149502.56;4978970;28;20037;-61
2022/12/21 09:53:58;;;;;;;74.17;17.33;;;;;;;8.15;100.00;149510.31;4975662;28;20478;-62
2022/12/21 09:56:28;;;;;;;83.20;18.17;;;;;;;8.15;100.00;149510.31;4997335;28;20026;-63
2022/12/21 09:58:55;;;;;;;74.20;18.27;;;;;;;8.17;100.00;149515.47;4996490;28;20060;-62
2022/12/21 10:01:27;;;;;;;66.73;16.43;;;;;;;8.19;100.00;149520.63;5003774;28;20105;-63
2022/12/21 10:04:01;;;;;;;65.63;15.90;;;;;;;8.38;100.00;149568.53;4986183;28;20049;-63
2022/12/21 10:07:12;;;;;;;61.80;15.03;;;;;;;8.42;100.00;149577.56;4979224;28;20030;-63
2022/12/21 10:09:50;;;;;;;48.03;12.70;;;;;;;8.43;100.00;149580.16;4981355;28;20050;-62
2022/12/21 10:12:40;;;;;;;44.47;12.47;;;;;;;8.41;100.00;149576.28;4979501;28;20034;-63
2022/12/21 10:15:24;;;;;;;40.83;11.87;;;;;;;8.39;100.00;149569.81;4984697;28;20046;-62
2022/12/21 10:18:09;;;;;;;43.10;10.93;;;;;;;8.39;100.00;149569.81;4987680;28;20085;-63
2022/12/21 10:20:56;;;;;;;37.20;9.70;;;;;;;8.32;100.00;149552.94;4983794;28;20048;-62
2022/12/21 10:23:29;;;;;;;33.60;9.10;;;;;;;8.19;100.00;149520.63;4984119;28;21750;-62
2022/12/21 10:25:59;;;;;;;29.47;9.00;;;;;;;8.10;100.00;149497.34;4991646;28;20109;-62
2022/12/21 10:29:02;;;;;;;34.93;9.70;;;;;;;8.07;100.00;149489.63;4991157;28;20084;-62
2022/12/21 10:31:37;;;;;;;31.90;9.00;;;;;;;8.04;100.00;149481.88;4981295;28;20462;-62
2022/12/21 10:34:14;;;;;;;36.07;9.97;;;;;;;8.14;100.00;149506.44;4992554;28;20058;-62
2022/12/21 10:36:40;;;;;;;30.07;9.00;;;;;;;8.15;100.00;149509.03;4992898;28;20104;-62
2022/12/21 10:42:28;;;;;;;28.05;8.40;;;;;;;8.11;100.00;149499.94;4992110;28;20116;-62
2022/12/21 10:45:08;;;;;;;28.10;8.33;;;;;;;8.17;100.00;149515.47;4991659;28;20030;-62
2022/12/21 10:47:44;;;;;;;29.03;8.70;;;;;;;8.34;100.00;149558.16;4991446;28;20044;-62
2022/12/21 10:50:23;;;;;;;31.80;9.43;;;;;;;8.34;100.00;149556.81;4991721;28;20038;-62
2022/12/21 10:52:51;;;;;;;24.23;8.57;;;;;;;8.38;100.00;149568.53;4991941;28;20062;-63
2022/12/21 10:55:17;;;;;;;28.43;9.03;;;;;;;8.41;100.00;149575.00;4992135;28;20034;-63
2022/12/21 10:57:43;;;;;;;26.30;8.60;;;;;;;8.41;100.00;149575.00;4992240;28;20034;-63
2022/12/21 11:00:26;;;;;;;30.47;9.10;;;;;;;8.36;100.00;149563.38;4983403;28;20050;-62
2022/12/21 11:02:56;;;;;;;28.90;7.93;;;;;;;8.44;100.00;149584.03;4980501;28;20025;-63
2022/12/21 11:05:31;;;;;;;28.70;8.37;;;;;;;8.55;100.00;149611.19;4986943;28;20042;-62
2022/12/21 11:08:29;;;;;;;24.60;9.43;;;;;;;8.58;100.00;149618.94;4992402;28;20022;-62
2022/12/21 11:10:58;;;;;;;23.27;8.07;;;;;;;8.45;100.00;149585.31;4978759;28;20031;-63
2022/12/21 11:13:29;;;;;;;24.27;8.50;;;;;;;8.33;100.00;149554.25;4982234;28;20026;-63
2022/12/21 11:16:05;;;;;;;25.42;9.02;;;;;;;8.21;100.00;149524.50;4992105;28;20077;-62
2022/12/21 11:18:42;;;;;;;26.90;9.37;;;;;;;8.09;100.00;149493.50;4976378;28;20030;-62
2022/12/21 11:21:45;;;;;;;23.83;8.63;;;;;;;8.17;100.00;149515.47;4976352;28;20035;-61
2022/12/21 11:25:09;;;;;;;24.87;9.63;;;;;;;8.24;100.00;149532.28;4982198;28;20445;-62
2022/12/21 11:27:41;;;;;;;23.10;9.53;;;;;;;8.32;100.00;149551.66;4954371;28;20090;-62
2022/12/21 11:30:33;;;;;;;25.33;9.10;;;;;;;8.37;100.00;149565.94;4963042;28;20130;-62
2022/12/21 11:33:00;;;;;;;30.07;9.27;;;;;;;8.41;100.00;149576.28;4951716;28;20035;-62
2022/12/21 11:35:39;;;;;;;25.60;9.00;;;;;;;8.30;100.00;149546.50;4951901;28;20577;-62
2022/12/21 11:38:33;;;;;;;23.83;8.60;;;;;;;8.33;100.00;149554.25;4955577;28;20023;-63
2022/12/21 11:41:31;;;;;;;24.07;8.90;;;;;;;8.34;100.00;149556.81;4951741;28;20047;-61
2022/12/21 11:43:57;;;;;;;29.37;9.10;;;;;;;8.38;100.00;149567.25;4948672;28;20031;-61
2022/12/21 11:47:21;;;;;;;27.53;9.17;;;;;;;8.40;100.00;149572.41;4953311;28;20038;-62
2022/12/21 11:50:08;;;;;;;22.33;7.63;;;;;;;8.35;100.00;149560.75;4912706;28;20476;-62
2022/12/21 11:52:52;;;;;;;23.53;8.60;;;;;;;8.28;100.00;149542.63;4960913;28;20597;-63
2022/12/21 11:55:18;;;;;;;20.53;7.70;;;;;;;8.18;100.00;149518.06;4952838;28;20050;-63
2022/12/21 11:57:58;;;;;;;28.50;9.67;;;;;;;8.21;100.00;149524.50;4954296;28;20414;-60